createdAt,value
2018-09-13T00:10:19.028Z,14.50
2018-09-13T00:25:22.877Z,14.19
2018-09-13T00:40:26.843Z,14.27
2018-09-13T00:55:30.720Z,14.17
2018-09-13T01:10:34.505Z,14.13
2018-09-13T01:25:38.319Z,14.14
2018-09-13T01:40:42.149Z,14.08
2018-09-13T01:55:45.972Z,14.07
2018-09-13T02:10:49.783Z,13.80
2018-09-13T02:25:53.576Z,14.35
2018-09-13T02:40:57.473Z,15.32
2018-09-13T02:56:01.251Z,15.43
2018-09-13T03:11:05.870Z,15.18
2018-09-13T03:26:09.926Z,14.85
2018-09-13T03:41:13.757Z,13.79
2018-09-13T03:56:17.626Z,13.73
2018-09-13T04:11:21.449Z,13.27
2018-09-13T04:26:25.288Z,14.05
2018-09-13T04:41:29.541Z,15.35
2018-09-13T04:56:33.414Z,17.11
2018-09-13T05:11:38.109Z,20.08
2018-09-13T05:26:41.928Z,20.42
2018-09-13T05:41:45.721Z,20.71
2018-09-13T05:56:49.538Z,22.30
2018-09-13T06:11:53.301Z,23.47
2018-09-13T06:26:57.272Z,23.48
2018-09-13T06:42:01.112Z,23.12
2018-09-13T06:57:04.922Z,22.53
2018-09-13T07:12:08.721Z,21.31
2018-09-13T07:27:12.501Z,21.79
2018-09-13T07:42:16.336Z,22.40
2018-09-13T07:57:20.168Z,25.73
2018-09-13T08:12:24.000Z,25.47
2018-09-13T08:27:27.869Z,23.80
2018-09-13T08:42:31.663Z,24.41
2018-09-13T08:57:35.447Z,22.35
2018-09-13T09:12:39.238Z,24.84
2018-09-13T09:27:43.060Z,24.14
2018-09-13T09:42:46.865Z,25.66
2018-09-13T09:57:51.080Z,22.52
2018-09-13T10:12:54.907Z,22.56
2018-09-13T10:28:03.863Z,23.50
2018-09-13T10:43:14.687Z,26.22
2018-09-13T10:58:18.604Z,23.41
2018-09-13T11:14:27.567Z,22.95
2018-09-13T11:29:31.496Z,23.73
2018-09-13T11:44:35.350Z,25.01
2018-09-13T11:59:39.173Z,25.58
2018-09-13T12:14:43.004Z,26.19
2018-09-13T12:29:46.813Z,24.49
2018-09-13T12:44:50.731Z,24.64
2018-09-13T12:59:54.550Z,22.93
2018-09-13T13:14:58.423Z,23.52
2018-09-13T13:30:02.281Z,23.99
2018-09-13T13:45:06.224Z,24.06
2018-09-13T14:00:10.931Z,24.07
2018-09-13T14:15:14.828Z,24.12
2018-09-13T14:30:18.681Z,23.36
2018-09-13T14:45:22.617Z,22.56
2018-09-13T15:00:26.473Z,22.40
2018-09-13T15:15:32.126Z,21.84
2018-09-13T15:30:35.987Z,21.62
2018-09-13T15:45:39.878Z,21.66
2018-09-13T16:00:43.747Z,21.20
2018-09-13T16:15:47.659Z,20.70
2018-09-13T16:30:51.558Z,20.35
2018-09-13T16:45:55.619Z,19.96
2018-09-13T17:00:59.985Z,19.80
2018-09-13T17:16:03.946Z,19.29
2018-09-13T17:31:07.874Z,18.79
2018-09-13T17:46:11.903Z,18.46
2018-09-13T18:01:15.993Z,18.23
2018-09-13T18:16:20.097Z,18.00
2018-09-13T18:31:24.293Z,17.78
2018-09-13T18:46:28.253Z,17.51
2018-09-13T19:01:32.163Z,17.41
2018-09-13T19:16:36.081Z,17.13
2018-09-13T19:31:40.297Z,16.83
2018-09-13T19:46:44.583Z,16.25
2018-09-13T20:01:48.980Z,16.19
2018-09-13T20:16:53.251Z,16.12
2018-09-13T20:31:57.489Z,15.43
2018-09-13T20:47:01.994Z,14.77
2018-09-13T21:02:05.746Z,14.58
2018-09-13T21:17:10.078Z,14.65
2018-09-13T21:32:14.226Z,14.59
2018-09-13T21:47:18.534Z,14.85
2018-09-13T22:02:22.704Z,14.79
2018-09-13T22:17:26.894Z,14.54
2018-09-13T22:32:31.111Z,14.29
2018-09-13T22:47:35.386Z,14.05
2018-09-13T23:02:44.622Z,13.86
2018-09-13T23:17:48.758Z,13.50
2018-09-13T23:32:52.946Z,13.66
2018-09-13T23:47:57.326Z,13.12
